sensor_id;sensor_type;location;lat;lon;timestamp;temperature;humidity
23347;DHT22;36852;45.466;11.066;2023-08-06T00:00:42;22.80;99.90
23347;DHT22;36852;45.466;11.066;2023-08-06T00:03:12;22.80;99.90
23347;DHT22;36852;45.466;11.066;2023-08-06T00:05:43;22.80;99.90
23347;DHT22;36852;45.466;11.066;2023-08-06T00:08:11;22.80;99.90
23347;DHT22;36852;45.466;11.066;2023-08-06T00:10:39;22.80;99.90
23347;DHT22;36852;45.466;11.066;2023-08-06T00:13:09;22.80;99.90
23347;DHT22;36852;45.466;11.066;2023-08-06T00:15:40;22.80;99.90
23347;DHT22;36852;45.466;11.066;2023-08-06T00:18:08;22.80;99.90
23347;DHT22;36852;45.466;11.066;2023-08-06T00:20:40;22.70;99.90
23347;DHT22;36852;45.466;11.066;2023-08-06T00:23:09;22.80;99.90
23347;DHT22;36852;45.466;11.066;2023-08-06T00:25:37;22.70;99.90
23347;DHT22;36852;45.466;11.066;2023-08-06T00:28:04;22.70;99.90
23347;DHT22;36852;45.466;11.066;2023-08-06T00:30:32;22.70;99.90
23347;DHT22;36852;45.466;11.066;2023-08-06T00:33:00;22.70;99.90
23347;DHT22;36852;45.466;11.066;2023-08-06T00:35:27;22.70;99.90
23347;DHT22;36852;45.466;11.066;2023-08-06T00:37:55;22.60;99.90
23347;DHT22;36852;45.466;11.066;2023-08-06T00:40:25;22.60;99.90
23347;DHT22;36852;45.466;11.066;2023-08-06T00:42:55;22.60;99.90
23347;DHT22;36852;45.466;11.066;2023-08-06T00:45:23;22.60;99.90
23347;DHT22;36852;45.466;11.066;2023-08-06T00:47:51;22.60;99.90
23347;DHT22;36852;45.466;11.066;2023-08-06T00:50:19;22.60;99.90
23347;DHT22;36852;45.466;11.066;2023-08-06T00:52:52;22.50;99.90
23347;DHT22;36852;45.466;11.066;2023-08-06T00:55:23;22.50;99.90
23347;DHT22;36852;45.466;11.066;2023-08-06T00:57:51;22.50;99.90
23347;DHT22;36852;45.466;11.066;2023-08-06T01:00:20;22.50;99.90
23347;DHT22;36852;45.466;11.066;2023-08-06T01:02:49;22.50;99.90
23347;DHT22;36852;45.466;11.066;2023-08-06T01:05:17;22.50;99.90
23347;DHT22;36852;45.466;11.066;2023-08-06T01:08:07;22.50;99.90
23347;DHT22;36852;45.466;11.066;2023-08-06T01:13:50;22.50;99.90
23347;DHT22;36852;45.466;11.066;2023-08-06T01:16:23;22.50;99.90
23347;DHT22;36852;45.466;11.066;2023-08-06T01:18:51;22.50;99.90
23347;DHT22;36852;45.466;11.066;2023-08-06T01:21:19;22.50;99.90
23347;DHT22;36852;45.466;11.066;2023-08-06T01:23:48;22.40;99.90
23347;DHT22;36852;45.466;11.066;2023-08-06T01:26:28;22.40;99.90
23347;DHT22;36852;45.466;11.066;2023-08-06T01:31:41;22.40;99.90
23347;DHT22;36852;45.466;11.066;2023-08-06T01:34:09;22.40;99.90
23347;DHT22;36852;45.466;11.066;2023-08-06T01:36:37;22.40;99.90
23347;DHT22;36852;45.466;11.066;2023-08-06T01:39:05;22.40;99.90
23347;DHT22;36852;45.466;11.066;2023-08-06T01:41:33;22.40;99.90
23347;DHT22;36852;45.466;11.066;2023-08-06T01:44:01;22.40;99.90
23347;DHT22;36852;45.466;11.066;2023-08-06T01:46:31;22.40;99.90
23347;DHT22;36852;45.466;11.066;2023-08-06T01:48:58;22.40;99.90
23347;DHT22;36852;45.466;11.066;2023-08-06T01:51:26;22.40;99.90
23347;DHT22;36852;45.466;11.066;2023-08-06T01:53:54;22.40;99.90
23347;DHT22;36852;45.466;11.066;2023-08-06T01:56:22;22.50;99.90
23347;DHT22;36852;45.466;11.066;2023-08-06T01:58:50;22.50;99.90
23347;DHT22;36852;45.466;11.066;2023-08-06T02:01:18;22.50;99.90
23347;DHT22;36852;45.466;11.066;2023-08-06T02:03:46;22.50;99.90
23347;DHT22;36852;45.466;11.066;2023-08-06T02:06:14;22.50;99.90
23347;DHT22;36852;45.466;11.066;2023-08-06T02:08:42;22.40;99.90
23347;DHT22;36852;45.466;11.066;2023-08-06T02:11:10;22.50;99.90
23347;DHT22;36852;45.466;11.066;2023-08-06T02:13:38;22.50;99.90
23347;DHT22;36852;45.466;11.066;2023-08-06T02:16:09;22.50;99.90
23347;DHT22;36852;45.466;11.066;2023-08-06T02:18:37;22.50;99.90
23347;DHT22;36852;45.466;11.066;2023-08-06T02:21:05;22.40;99.90
23347;DHT22;36852;45.466;11.066;2023-08-06T02:23:32;22.40;99.90
23347;DHT22;36852;45.466;11.066;2023-08-06T02:26:04;22.40;99.90
23347;DHT22;36852;45.466;11.066;2023-08-06T02:28:32;22.40;99.90
23347;DHT22;36852;45.466;11.066;2023-08-06T02:31:03;22.40;99.90
23347;DHT22;36852;45.466;11.066;2023-08-06T02:33:31;22.40;99.90
23347;DHT22;36852;45.466;11.066;2023-08-06T02:36:02;22.40;99.90
23347;DHT22;36852;45.466;11.066;2023-08-06T02:38:31;22.40;99.90
23347;DHT22;36852;45.466;11.066;2023-08-06T02:41:02;22.40;99.90
23347;DHT22;36852;45.466;11.066;2023-08-06T02:43:31;22.40;99.90
23347;DHT22;36852;45.466;11.066;2023-08-06T02:46:00;22.40;99.90
23347;DHT22;36852;45.466;11.066;2023-08-06T02:48:30;22.40;99.90
23347;DHT22;36852;45.466;11.066;2023-08-06T02:50:59;22.40;99.90
23347;DHT22;36852;45.466;11.066;2023-08-06T02:53:28;22.40;99.90
23347;DHT22;36852;45.466;11.066;2023-08-06T02:55:57;22.40;99.90
23347;DHT22;36852;45.466;11.066;2023-08-06T02:58:28;22.40;99.90
23347;DHT22;36852;45.466;11.066;2023-08-06T03:03:48;22.40;99.90
23347;DHT22;36852;45.466;11.066;2023-08-06T03:06:17;22.40;99.90
23347;DHT22;36852;45.466;11.066;2023-08-06T03:08:47;22.40;99.90
23347;DHT22;36852;45.466;11.066;2023-08-06T03:11:16;22.30;99.90
23347;DHT22;36852;45.466;11.066;2023-08-06T03:13:45;22.30;99.90
23347;DHT22;36852;45.466;11.066;2023-08-06T03:16:13;22.40;99.90
23347;DHT22;36852;45.466;11.066;2023-08-06T03:18:40;22.40;99.90
23347;DHT22;36852;45.466;11.066;2023-08-06T03:21:08;22.40;99.90
23347;DHT22;36852;45.466;11.066;2023-08-06T03:23:37;22.40;99.90
23347;DHT22;36852;45.466;11.066;2023-08-06T03:26:05;22.40;99.90
23347;DHT22;36852;45.466;11.066;2023-08-06T03:28:33;22.40;99.90
23347;DHT22;36852;45.466;11.066;2023-08-06T03:31:01;22.40;99.90
23347;DHT22;36852;45.466;11.066;2023-08-06T03:33:37;22.40;99.90
23347;DHT22;36852;45.466;11.066;2023-08-06T03:36:07;22.40;99.90
23347;DHT22;36852;45.466;11.066;2023-08-06T03:38:35;22.40;99.90
23347;DHT22;36852;45.466;11.066;2023-08-06T03:41:04;22.40;99.90
23347;DHT22;36852;45.466;11.066;2023-08-06T03:43:32;22.40;99.90
23347;DHT22;36852;45.466;11.066;2023-08-06T03:46:00;22.40;99.90
23347;DHT22;36852;45.466;11.066;2023-08-06T03:48:28;22.40;99.90
23347;DHT22;36852;45.466;11.066;2023-08-06T03:50:57;22.40;99.90
23347;DHT22;36852;45.466;11.066;2023-08-06T03:53:28;22.30;99.90
23347;DHT22;36852;45.466;11.066;2023-08-06T03:55:57;22.30;99.90
23347;DHT22;36852;45.466;11.066;2023-08-06T03:58:26;22.30;99.90
23347;DHT22;36852;45.466;11.066;2023-08-06T04:01:01;22.30;99.90
23347;DHT22;36852;45.466;11.066;2023-08-06T04:03:34;22.30;99.90
23347;DHT22;36852;45.466;11.066;2023-08-06T04:06:03;22.30;99.90
23347;DHT22;36852;45.466;11.066;2023-08-06T04:08:31;22.30;99.90
23347;DHT22;36852;45.466;11.066;2023-08-06T04:10:59;22.30;99.90
23347;DHT22;36852;45.466;11.066;2023-08-06T04:13:27;22.30;99.90
23347;DHT22;36852;45.466;11.066;2023-08-06T04:16:02;22.30;99.90
23347;DHT22;36852;45.466;11.066;2023-08-06T04:18:30;22.30;99.90
23347;DHT22;36852;45.466;11.066;2023-08-06T04:20:57;22.20;99.90
23347;DHT22;36852;45.466;11.066;2023-08-06T04:23:25;22.20;99.90
23347;DHT22;36852;45.466;11.066;2023-08-06T04:25:59;22.20;99.90
23347;DHT22;36852;45.466;11.066;2023-08-06T04:28:30;22.20;99.90
23347;DHT22;36852;45.466;11.066;2023-08-06T04:30:59;22.10;99.90
23347;DHT22;36852;45.466;11.066;2023-08-06T04:33:28;22.10;99.90
23347;DHT22;36852;45.466;11.066;2023-08-06T04:35:57;22.10;99.90
23347;DHT22;36852;45.466;11.066;2023-08-06T04:38:26;22.10;99.90
23347;DHT22;36852;45.466;11.066;2023-08-06T04:40:54;22.00;99.90
23347;DHT22;36852;45.466;11.066;2023-08-06T04:43:22;22.00;99.90
23347;DHT22;36852;45.466;11.066;2023-08-06T04:45:54;22.00;99.90
23347;DHT22;36852;45.466;11.066;2023-08-06T04:48:22;22.10;99.90
23347;DHT22;36852;45.466;11.066;2023-08-06T04:50:51;22.10;99.90
23347;DHT22;36852;45.466;11.066;2023-08-06T04:53:19;22.00;99.90
23347;DHT22;36852;45.466;11.066;2023-08-06T04:55:47;22.00;99.90
23347;DHT22;36852;45.466;11.066;2023-08-06T04:58:15;22.00;99.90
23347;DHT22;36852;45.466;11.066;2023-08-06T05:00:42;22.00;99.90
23347;DHT22;36852;45.466;11.066;2023-08-06T05:03:12;22.00;99.90
23347;DHT22;36852;45.466;11.066;2023-08-06T05:05:40;22.10;99.90
23347;DHT22;36852;45.466;11.066;2023-08-06T05:08:13;22.10;99.90
23347;DHT22;36852;45.466;11.066;2023-08-06T05:10:42;22.00;99.90
23347;DHT22;36852;45.466;11.066;2023-08-06T05:13:13;22.00;99.90
23347;DHT22;36852;45.466;11.066;2023-08-06T05:15:41;22.00;99.90
23347;DHT22;36852;45.466;11.066;2023-08-06T05:18:11;22.00;99.90
23347;DHT22;36852;45.466;11.066;2023-08-06T05:20:40;22.10;99.90
23347;DHT22;36852;45.466;11.066;2023-08-06T05:26:39;22.20;99.90
23347;DHT22;36852;45.466;11.066;2023-08-06T05:29:07;22.20;99.90
23347;DHT22;36852;45.466;11.066;2023-08-06T05:31:34;22.20;99.90
23347;DHT22;36852;45.466;11.066;2023-08-06T05:34:02;22.30;99.90
23347;DHT22;36852;45.466;11.066;2023-08-06T05:36:30;22.40;99.90
23347;DHT22;36852;45.466;11.066;2023-08-06T05:38:58;22.40;99.90
23347;DHT22;36852;45.466;11.066;2023-08-06T05:41:25;22.50;99.90
23347;DHT22;36852;45.466;11.066;2023-08-06T05:43:53;22.50;99.90
23347;DHT22;36852;45.466;11.066;2023-08-06T05:46:23;22.60;99.90
23347;DHT22;36852;45.466;11.066;2023-08-06T05:48:53;22.70;99.90
23347;DHT22;36852;45.466;11.066;2023-08-06T05:51:21;22.70;99.90
23347;DHT22;36852;45.466;11.066;2023-08-06T05:53:49;22.80;99.90
23347;DHT22;36852;45.466;11.066;2023-08-06T05:56:18;22.80;99.90
23347;DHT22;36852;45.466;11.066;2023-08-06T05:58:45;22.90;99.90
23347;DHT22;36852;45.466;11.066;2023-08-06T06:01:15;22.90;99.90
23347;DHT22;36852;45.466;11.066;2023-08-06T06:03:43;22.90;99.90
23347;DHT22;36852;45.466;11.066;2023-08-06T06:06:10;23.00;99.90
23347;DHT22;36852;45.466;11.066;2023-08-06T06:08:38;23.00;99.90
23347;DHT22;36852;45.466;11.066;2023-08-06T06:11:06;23.00;99.90
23347;DHT22;36852;45.466;11.066;2023-08-06T06:13:34;23.10;99.90
23347;DHT22;36852;45.466;11.066;2023-08-06T06:16:05;23.10;99.90
23347;DHT22;36852;45.466;11.066;2023-08-06T06:18:33;23.10;99.90
23347;DHT22;36852;45.466;11.066;2023-08-06T06:21:03;23.20;99.90
23347;DHT22;36852;45.466;11.066;2023-08-06T06:23:31;23.10;99.90
23347;DHT22;36852;45.466;11.066;2023-08-06T06:26:00;23.20;99.90
23347;DHT22;36852;45.466;11.066;2023-08-06T06:28:27;23.20;99.90
23347;DHT22;36852;45.466;11.066;2023-08-06T06:31:02;23.20;99.90
23347;DHT22;36852;45.466;11.066;2023-08-06T06:33:30;23.20;99.90
23347;DHT22;36852;45.466;11.066;2023-08-06T06:35:58;23.20;99.90
23347;DHT22;36852;45.466;11.066;2023-08-06T06:38:26;23.30;99.90
23347;DHT22;36852;45.466;11.066;2023-08-06T06:40:55;23.20;99.90
23347;DHT22;36852;45.466;11.066;2023-08-06T06:43:23;23.30;99.90
23347;DHT22;36852;45.466;11.066;2023-08-06T06:45:59;23.30;99.90
23347;DHT22;36852;45.466;11.066;2023-08-06T06:48:29;23.40;99.90
23347;DHT22;36852;45.466;11.066;2023-08-06T06:50:57;23.40;99.90
23347;DHT22;36852;45.466;11.066;2023-08-06T06:53:26;23.40;99.90
23347;DHT22;36852;45.466;11.066;2023-08-06T06:56:01;23.40;99.90
23347;DHT22;36852;45.466;11.066;2023-08-06T06:58:31;23.50;99.90
23347;DHT22;36852;45.466;11.066;2023-08-06T07:00:59;23.50;99.90
23347;DHT22;36852;45.466;11.066;2023-08-06T07:03:30;23.60;99.90
23347;DHT22;36852;45.466;11.066;2023-08-06T07:05:58;23.60;99.90
23347;DHT22;36852;45.466;11.066;2023-08-06T07:08:26;23.70;99.90
23347;DHT22;36852;45.466;11.066;2023-08-06T07:10:59;23.70;99.90
23347;DHT22;36852;45.466;11.066;2023-08-06T07:13:27;23.70;99.90
23347;DHT22;36852;45.466;11.066;2023-08-06T07:15:54;23.80;99.90
23347;DHT22;36852;45.466;11.066;2023-08-06T07:18:23;23.80;99.90
23347;DHT22;36852;45.466;11.066;2023-08-06T07:20:53;23.80;99.90
23347;DHT22;36852;45.466;11.066;2023-08-06T07:23:22;23.80;99.90
23347;DHT22;36852;45.466;11.066;2023-08-06T07:25:51;23.90;99.90
23347;DHT22;36852;45.466;11.066;2023-08-06T07:28:19;23.90;99.90
23347;DHT22;36852;45.466;11.066;2023-08-06T07:30:48;23.90;99.90
23347;DHT22;36852;45.466;11.066;2023-08-06T07:33:16;23.90;99.90
23347;DHT22;36852;45.466;11.066;2023-08-06T07:35:51;24.00;99.90
23347;DHT22;36852;45.466;11.066;2023-08-06T07:38:20;23.90;99.90
23347;DHT22;36852;45.466;11.066;2023-08-06T07:40:49;23.90;99.90
23347;DHT22;36852;45.466;11.066;2023-08-06T07:43:17;23.90;99.90
23347;DHT22;36852;45.466;11.066;2023-08-06T07:45:45;24.00;99.90
23347;DHT22;36852;45.466;11.066;2023-08-06T07:48:13;24.00;99.90
23347;DHT22;36852;45.466;11.066;2023-08-06T07:50:41;24.10;99.90
23347;DHT22;36852;45.466;11.066;2023-08-06T07:53:09;24.20;99.90
23347;DHT22;36852;45.466;11.066;2023-08-06T07:55:38;24.20;99.90
23347;DHT22;36852;45.466;11.066;2023-08-06T07:58:05;24.20;99.90
23347;DHT22;36852;45.466;11.066;2023-08-06T08:00:33;24.30;99.90
23347;DHT22;36852;45.466;11.066;2023-08-06T08:03:01;24.30;99.90
23347;DHT22;36852;45.466;11.066;2023-08-06T08:05:30;24.40;99.90
23347;DHT22;36852;45.466;11.066;2023-08-06T08:08:01;24.40;99.90
23347;DHT22;36852;45.466;11.066;2023-08-06T08:10:29;24.50;99.90
23347;DHT22;36852;45.466;11.066;2023-08-06T08:12:58;24.50;99.90
23347;DHT22;36852;45.466;11.066;2023-08-06T08:15:28;24.50;99.90
23347;DHT22;36852;45.466;11.066;2023-08-06T08:17:56;24.60;99.90
23347;DHT22;36852;45.466;11.066;2023-08-06T08:20:24;24.60;99.90
23347;DHT22;36852;45.466;11.066;2023-08-06T08:22:54;24.60;99.90
23347;DHT22;36852;45.466;11.066;2023-08-06T08:25:24;24.60;99.90
23347;DHT22;36852;45.466;11.066;2023-08-06T08:27:53;24.70;99.90
23347;DHT22;36852;45.466;11.066;2023-08-06T08:30:22;24.70;99.90
23347;DHT22;36852;45.466;11.066;2023-08-06T08:32:49;24.70;99.90
23347;DHT22;36852;45.466;11.066;2023-08-06T08:35:20;24.80;99.90
23347;DHT22;36852;45.466;11.066;2023-08-06T08:37:48;24.90;99.90
23347;DHT22;36852;45.466;11.066;2023-08-06T08:40:17;24.90;99.90
23347;DHT22;36852;45.466;11.066;2023-08-06T08:42:45;25.00;99.90
23347;DHT22;36852;45.466;11.066;2023-08-06T08:45:14;25.10;99.90
23347;DHT22;36852;45.466;11.066;2023-08-06T08:47:43;25.10;99.90
23347;DHT22;36852;45.466;11.066;2023-08-06T08:50:11;25.20;99.90
23347;DHT22;36852;45.466;11.066;2023-08-06T08:52:39;25.20;99.90
23347;DHT22;36852;45.466;11.066;2023-08-06T08:55:08;25.20;99.90
23347;DHT22;36852;45.466;11.066;2023-08-06T08:57:36;25.30;99.90
23347;DHT22;36852;45.466;11.066;2023-08-06T09:00:05;25.30;99.90
23347;DHT22;36852;45.466;11.066;2023-08-06T09:02:34;25.30;99.90
23347;DHT22;36852;45.466;11.066;2023-08-06T09:05:05;25.30;99.90
23347;DHT22;36852;45.466;11.066;2023-08-06T09:07:47;25.40;99.90
23347;DHT22;36852;45.466;11.066;2023-08-06T09:10:16;25.40;99.90
23347;DHT22;36852;45.466;11.066;2023-08-06T09:12:49;25.50;99.90
23347;DHT22;36852;45.466;11.066;2023-08-06T09:15:18;25.60;99.90
23347;DHT22;36852;45.466;11.066;2023-08-06T09:17:48;25.60;99.90
23347;DHT22;36852;45.466;11.066;2023-08-06T09:20:17;25.70;99.90
23347;DHT22;36852;45.466;11.066;2023-08-06T09:22:47;25.70;99.90
23347;DHT22;36852;45.466;11.066;2023-08-06T09:25:22;25.60;99.90
23347;DHT22;36852;45.466;11.066;2023-08-06T09:27:52;25.60;99.90
23347;DHT22;36852;45.466;11.066;2023-08-06T09:30:35;25.60;99.90
23347;DHT22;36852;45.466;11.066;2023-08-06T09:33:07;25.60;99.90
23347;DHT22;36852;45.466;11.066;2023-08-06T09:35:33;25.60;99.90
23347;DHT22;36852;45.466;11.066;2023-08-06T09:38:08;25.60;99.90
23347;DHT22;36852;45.466;11.066;2023-08-06T09:40:38;25.60;99.90
23347;DHT22;36852;45.466;11.066;2023-08-06T09:43:07;25.50;99.90
23347;DHT22;36852;45.466;11.066;2023-08-06T09:45:36;25.40;99.90
23347;DHT22;36852;45.466;11.066;2023-08-06T09:48:07;25.50;99.90
23347;DHT22;36852;45.466;11.066;2023-08-06T09:50:40;25.50;99.90
23347;DHT22;36852;45.466;11.066;2023-08-06T09:53:09;25.60;99.90
23347;DHT22;36852;45.466;11.066;2023-08-06T09:55:39;25.60;99.90
23347;DHT22;36852;45.466;11.066;2023-08-06T09:58:07;25.70;99.90
23347;DHT22;36852;45.466;11.066;2023-08-06T10:00:35;25.60;99.90
23347;DHT22;36852;45.466;11.066;2023-08-06T10:03:06;25.70;99.90
23347;DHT22;36852;45.466;11.066;2023-08-06T10:05:36;25.70;99.90
23347;DHT22;36852;45.466;11.066;2023-08-06T10:08:05;25.80;99.90
23347;DHT22;36852;45.466;11.066;2023-08-06T10:10:36;25.80;99.90
23347;DHT22;36852;45.466;11.066;2023-08-06T10:13:06;25.90;99.90
23347;DHT22;36852;45.466;11.066;2023-08-06T10:15:36;25.90;99.90
23347;DHT22;36852;45.466;11.066;2023-08-06T10:18:08;25.90;99.90
23347;DHT22;36852;45.466;11.066;2023-08-06T10:20:46;25.80;99.90
23347;DHT22;36852;45.466;11.066;2023-08-06T10:23:14;25.60;99.90
23347;DHT22;36852;45.466;11.066;2023-08-06T10:25:45;25.60;99.90
23347;DHT22;36852;45.466;11.066;2023-08-06T10:28:15;25.70;99.90
23347;DHT22;36852;45.466;11.066;2023-08-06T10:30:46;25.70;99.90
23347;DHT22;36852;45.466;11.066;2023-08-06T10:33:15;25.80;99.90
23347;DHT22;36852;45.466;11.066;2023-08-06T10:35:51;26.00;99.90
23347;DHT22;36852;45.466;11.066;2023-08-06T10:38:25;26.00;99.90
23347;DHT22;36852;45.466;11.066;2023-08-06T10:41:02;26.00;99.90
23347;DHT22;36852;45.466;11.066;2023-08-06T10:43:32;26.00;99.90
23347;DHT22;36852;45.466;11.066;2023-08-06T10:46:03;26.00;99.90
23347;DHT22;36852;45.466;11.066;2023-08-06T10:48:37;26.10;99.90
23347;DHT22;36852;45.466;11.066;2023-08-06T10:51:08;26.10;99.90
23347;DHT22;36852;45.466;11.066;2023-08-06T10:53:38;26.20;99.90
23347;DHT22;36852;45.466;11.066;2023-08-06T10:56:13;26.30;99.90
23347;DHT22;36852;45.466;11.066;2023-08-06T10:58:43;26.30;99.90
23347;DHT22;36852;45.466;11.066;2023-08-06T11:01:12;26.30;99.90
23347;DHT22;36852;45.466;11.066;2023-08-06T11:03:40;26.30;99.90
23347;DHT22;36852;45.466;11.066;2023-08-06T11:06:10;26.40;99.90
23347;DHT22;36852;45.466;11.066;2023-08-06T11:08:40;26.40;99.90
23347;DHT22;36852;45.466;11.066;2023-08-06T11:11:10;26.40;99.90
23347;DHT22;36852;45.466;11.066;2023-08-06T11:13:59;26.40;99.90
23347;DHT22;36852;45.466;11.066;2023-08-06T11:16:27;26.50;99.90
23347;DHT22;36852;45.466;11.066;2023-08-06T11:18:55;26.60;99.90
23347;DHT22;36852;45.466;11.066;2023-08-06T11:21:25;26.70;99.90
23347;DHT22;36852;45.466;11.066;2023-08-06T11:23:53;26.60;99.90
23347;DHT22;36852;45.466;11.066;2023-08-06T11:26:21;26.60;99.90
23347;DHT22;36852;45.466;11.066;2023-08-06T11:28:51;26.60;99.90
23347;DHT22;36852;45.466;11.066;2023-08-06T11:31:21;26.70;99.90
23347;DHT22;36852;45.466;11.066;2023-08-06T11:33:53;26.70;99.90
23347;DHT22;36852;45.466;11.066;2023-08-06T11:36:40;26.70;99.90
23347;DHT22;36852;45.466;11.066;2023-08-06T11:39:04;26.70;99.90
23347;DHT22;36852;45.466;11.066;2023-08-06T11:41:33;26.80;99.90
23347;DHT22;36852;45.466;11.066;2023-08-06T11:44:03;26.80;99.90
23347;DHT22;36852;45.466;11.066;2023-08-06T11:46:53;26.80;99.90
23347;DHT22;36852;45.466;11.066;2023-08-06T11:49:47;26.70;99.90
23347;DHT22;36852;45.466;11.066;2023-08-06T11:52:18;26.70;99.90
23347;DHT22;36852;45.466;11.066;2023-08-06T11:55:11;26.80;99.90
23347;DHT22;36852;45.466;11.066;2023-08-06T11:57:39;26.90;99.90
23347;DHT22;36852;45.466;11.066;2023-08-06T12:00:10;26.90;98.40
23347;DHT22;36852;45.466;11.066;2023-08-06T12:02:39;27.00;98.60
23347;DHT22;36852;45.466;11.066;2023-08-06T12:05:14;27.00;97.80
23347;DHT22;36852;45.466;11.066;2023-08-06T12:07:44;27.00;96.80
23347;DHT22;36852;45.466;11.066;2023-08-06T12:10:13;27.10;97.80
23347;DHT22;36852;45.466;11.066;2023-08-06T12:13:01;27.20;98.60
23347;DHT22;36852;45.466;11.066;2023-08-06T12:15:32;27.20;97.20
23347;DHT22;36852;45.466;11.066;2023-08-06T12:18:00;27.40;97.80
23347;DHT22;36852;45.466;11.066;2023-08-06T12:20:28;27.50;96.50
23347;DHT22;36852;45.466;11.066;2023-08-06T12:22:56;27.60;98.20
23347;DHT22;36852;45.466;11.066;2023-08-06T12:25:24;27.70;97.10
23347;DHT22;36852;45.466;11.066;2023-08-06T12:27:52;27.80;95.30
23347;DHT22;36852;45.466;11.066;2023-08-06T12:30:23;27.90;95.50
23347;DHT22;36852;45.466;11.066;2023-08-06T12:32:51;28.00;95.70
23347;DHT22;36852;45.466;11.066;2023-08-06T12:35:23;28.00;92.60
23347;DHT22;36852;45.466;11.066;2023-08-06T12:37:53;28.00;91.10
23347;DHT22;36852;45.466;11.066;2023-08-06T12:40:22;28.00;90.00
23347;DHT22;36852;45.466;11.066;2023-08-06T12:42:51;27.90;86.90
23347;DHT22;36852;45.466;11.066;2023-08-06T12:45:19;27.90;86.50
23347;DHT22;36852;45.466;11.066;2023-08-06T12:47:50;27.80;87.50
23347;DHT22;36852;45.466;11.066;2023-08-06T12:50:18;27.80;85.50
23347;DHT22;36852;45.466;11.066;2023-08-06T12:52:49;27.80;82.40
23347;DHT22;36852;45.466;11.066;2023-08-06T12:55:17;27.70;80.80
23347;DHT22;36852;45.466;11.066;2023-08-06T12:57:45;27.70;80.30
23347;DHT22;36852;45.466;11.066;2023-08-06T13:00:15;27.60;78.90
23347;DHT22;36852;45.466;11.066;2023-08-06T13:02:44;27.60;80.90
23347;DHT22;36852;45.466;11.066;2023-08-06T13:05:12;27.60;80.80
23347;DHT22;36852;45.466;11.066;2023-08-06T13:07:40;27.60;80.70
23347;DHT22;36852;45.466;11.066;2023-08-06T13:10:09;27.60;80.50
23347;DHT22;36852;45.466;11.066;2023-08-06T13:12:38;27.60;81.10
23347;DHT22;36852;45.466;11.066;2023-08-06T13:15:07;27.70;83.60
23347;DHT22;36852;45.466;11.066;2023-08-06T13:17:35;27.80;85.20
23347;DHT22;36852;45.466;11.066;2023-08-06T13:20:04;28.00;86.60
23347;DHT22;36852;45.466;11.066;2023-08-06T13:22:32;28.20;86.80
23347;DHT22;36852;45.466;11.066;2023-08-06T13:25:00;28.30;86.40
23347;DHT22;36852;45.466;11.066;2023-08-06T13:27:28;28.40;84.90
23347;DHT22;36852;45.466;11.066;2023-08-06T13:29:55;28.60;84.30
23347;DHT22;36852;45.466;11.066;2023-08-06T13:32:23;28.70;85.80
23347;DHT22;36852;45.466;11.066;2023-08-06T13:34:51;28.90;86.90
23347;DHT22;36852;45.466;11.066;2023-08-06T13:37:19;28.90;85.00
23347;DHT22;36852;45.466;11.066;2023-08-06T13:39:48;28.90;85.60
23347;DHT22;36852;45.466;11.066;2023-08-06T13:42:15;29.00;87.70
23347;DHT22;36852;45.466;11.066;2023-08-06T13:44:43;29.10;90.40
23347;DHT22;36852;45.466;11.066;2023-08-06T13:47:11;29.20;89.70
23347;DHT22;36852;45.466;11.066;2023-08-06T13:49:40;29.30;88.20
23347;DHT22;36852;45.466;11.066;2023-08-06T13:52:08;29.50;88.50
23347;DHT22;36852;45.466;11.066;2023-08-06T13:54:37;29.70;88.50
23347;DHT22;36852;45.466;11.066;2023-08-06T13:57:05;30.00;86.60
23347;DHT22;36852;45.466;11.066;2023-08-06T13:59:34;30.20;86.00
23347;DHT22;36852;45.466;11.066;2023-08-06T14:02:02;30.50;81.30
23347;DHT22;36852;45.466;11.066;2023-08-06T14:04:30;30.80;83.00
23347;DHT22;36852;45.466;11.066;2023-08-06T14:06:58;31.00;74.40
23347;DHT22;36852;45.466;11.066;2023-08-06T14:09:27;31.10;77.00
23347;DHT22;36852;45.466;11.066;2023-08-06T14:11:55;31.40;75.20
23347;DHT22;36852;45.466;11.066;2023-08-06T14:14:28;31.60;70.60
23347;DHT22;36852;45.466;11.066;2023-08-06T14:16:59;31.80;71.70
23347;DHT22;36852;45.466;11.066;2023-08-06T14:19:30;31.90;66.90
23347;DHT22;36852;45.466;11.066;2023-08-06T14:21:58;31.80;67.60
23347;DHT22;36852;45.466;11.066;2023-08-06T14:24:26;32.00;69.50
23347;DHT22;36852;45.466;11.066;2023-08-06T14:26:54;32.10;68.90
23347;DHT22;36852;45.466;11.066;2023-08-06T14:29:22;32.40;67.00
23347;DHT22;36852;45.466;11.066;2023-08-06T14:31:51;32.70;66.00
23347;DHT22;36852;45.466;11.066;2023-08-06T14:34:19;33.00;66.50
23347;DHT22;36852;45.466;11.066;2023-08-06T14:36:48;33.20;64.10
23347;DHT22;36852;45.466;11.066;2023-08-06T14:39:22;33.20;61.70
23347;DHT22;36852;45.466;11.066;2023-08-06T14:41:50;33.20;59.10
23347;DHT22;36852;45.466;11.066;2023-08-06T14:44:19;33.20;59.50
23347;DHT22;36852;45.466;11.066;2023-08-06T14:46:47;33.40;64.10
23347;DHT22;36852;45.466;11.066;2023-08-06T14:49:14;33.50;62.20
23347;DHT22;36852;45.466;11.066;2023-08-06T14:51:43;33.60;62.80
23347;DHT22;36852;45.466;11.066;2023-08-06T14:54:15;33.90;65.00
23347;DHT22;36852;45.466;11.066;2023-08-06T14:56:43;34.00;61.10
23347;DHT22;36852;45.466;11.066;2023-08-06T14:59:10;34.20;59.60
23347;DHT22;36852;45.466;11.066;2023-08-06T15:01:41;34.10;57.30
23347;DHT22;36852;45.466;11.066;2023-08-06T15:04:09;33.80;56.80
23347;DHT22;36852;45.466;11.066;2023-08-06T15:06:37;33.30;57.80
23347;DHT22;36852;45.466;11.066;2023-08-06T15:09:05;32.80;57.40
23347;DHT22;36852;45.466;11.066;2023-08-06T15:11:33;32.40;59.50
23347;DHT22;36852;45.466;11.066;2023-08-06T15:14:01;32.00;61.20
23347;DHT22;36852;45.466;11.066;2023-08-06T15:16:30;31.70;62.40
23347;DHT22;36852;45.466;11.066;2023-08-06T15:18:58;31.40;62.60
23347;DHT22;36852;45.466;11.066;2023-08-06T15:21:27;31.10;63.00
23347;DHT22;36852;45.466;11.066;2023-08-06T15:23:55;30.90;63.80
23347;DHT22;36852;45.466;11.066;2023-08-06T15:26:23;30.60;64.40
23347;DHT22;36852;45.466;11.066;2023-08-06T15:28:51;30.50;64.70
23347;DHT22;36852;45.466;11.066;2023-08-06T15:31:21;30.30;65.20
23347;DHT22;36852;45.466;11.066;2023-08-06T15:33:49;30.30;65.80
23347;DHT22;36852;45.466;11.066;2023-08-06T15:36:17;30.20;65.80
23347;DHT22;36852;45.466;11.066;2023-08-06T15:38:44;30.40;68.90
23347;DHT22;36852;45.466;11.066;2023-08-06T15:41:14;30.80;69.30